Main page
METAR-TAF:

METAR-TAF

Airports :

Hamilton Municipal Airport

Hamilton, Texas, United States

latitude: 31-39-57N, longitude: 098-08-55W, elevation: 1299 ft

Current weather observation

The report was made 20 minutes ago, at 21:35 UTC
Wind 10 mph from the West/Southwest with gusts up to 17 mph
Temperature 82°F
Humidity 35%
Pressure 29.77 in. Hg
Visibility: 10 miles
Clear sky

METAR: KMNZ 172135Z AUTO 24009G15KT 10SM CLR 28/11 A2977 RMK AO2 T02780111

Time: 14:55 (21:55 UTC)


TAF: missing

Weather observations and forecasts of more than 4000 airports (METAR and TAF reports).

The available stations are represented by yellow and red dots on the map.

Hover mouse over dot to see the name of the station.

Then click to see weather observations and forecasts.

To change the map : click on the green buttons with a black cross to zoom in, on the green button with a dash to zoom out, or on the green arrows for adjacent maps.


METAR-TAF: